createdAt,value
2023-05-07T00:00:52.197Z,7.93
2023-05-07T00:05:47.494Z,8.57
2023-05-07T00:08:14.676Z,8.73
2023-05-07T00:10:42.273Z,9.07
2023-05-07T00:13:09.539Z,9.33
2023-05-07T00:15:36.811Z,9.63
2023-05-07T00:18:04.201Z,8.50
2023-05-07T00:20:31.454Z,8.90
2023-05-07T00:22:58.776Z,8.87
2023-05-07T00:25:26.046Z,8.93
2023-05-07T00:27:53.190Z,8.80
2023-05-07T00:30:20.924Z,9.40
2023-05-07T00:32:49.879Z,8.83
2023-05-07T00:35:17.110Z,8.07
2023-05-07T00:37:44.538Z,8.60
2023-05-07T00:40:12.462Z,8.30
2023-05-07T00:42:39.882Z,8.37
2023-05-07T00:45:10.077Z,8.93
2023-05-07T00:47:37.914Z,9.40
2023-05-07T00:50:06.898Z,8.17
2023-05-07T00:52:34.674Z,9.20
2023-05-07T00:55:07.199Z,8.30
2023-05-07T00:57:41.836Z,8.33
2023-05-07T01:00:10.964Z,8.90
2023-05-07T01:02:39.106Z,8.93
2023-05-07T01:05:08.924Z,9.53
2023-05-07T01:07:38.020Z,11.50
2023-05-07T01:10:07.588Z,9.77
2023-05-07T01:12:36.167Z,10.13
2023-05-07T01:15:05.615Z,9.93
2023-05-07T01:17:41.783Z,10.00
2023-05-07T01:20:15.098Z,10.43
2023-05-07T01:22:44.759Z,9.30
2023-05-07T01:25:12.703Z,9.17
2023-05-07T01:27:44.819Z,9.37
2023-05-07T01:30:12.825Z,8.93
2023-05-07T01:32:50.132Z,8.97
2023-05-07T01:35:21.737Z,8.33
2023-05-07T01:37:50.179Z,9.53
2023-05-07T01:40:17.808Z,10.43
2023-05-07T01:42:46.395Z,9.00
2023-05-07T01:45:13.700Z,9.57
2023-05-07T01:47:41.224Z,8.93
2023-05-07T01:50:12.201Z,9.37
2023-05-07T01:52:39.985Z,9.23
2023-05-07T01:55:07.945Z,10.23
2023-05-07T01:57:35.522Z,10.03
2023-05-07T02:00:04.123Z,11.23
2023-05-07T02:02:43.125Z,9.93
2023-05-07T02:05:21.311Z,10.40
2023-05-07T02:07:56.082Z,9.57
2023-05-07T02:10:23.850Z,9.10
2023-05-07T02:12:51.019Z,10.23
2023-05-07T02:15:18.248Z,9.80
2023-05-07T02:18:04.142Z,9.17
2023-05-07T02:20:31.989Z,9.00
2023-05-07T02:22:59.447Z,9.40
2023-05-07T02:25:28.449Z,8.93
2023-05-07T02:27:55.756Z,9.97
2023-05-07T02:30:29.233Z,9.10
2023-05-07T02:32:58.407Z,9.53
2023-05-07T02:35:26.977Z,8.80
2023-05-07T02:37:54.536Z,8.33
2023-05-07T02:40:23.057Z,8.77
2023-05-07T02:42:50.481Z,8.07
2023-05-07T02:45:18.056Z,9.57
2023-05-07T02:47:47.394Z,9.03
2023-05-07T02:50:15.594Z,8.70
2023-05-07T02:52:43.034Z,8.43
2023-05-07T02:55:10.323Z,8.90
2023-05-07T02:57:37.552Z,8.37
2023-05-07T03:00:17.251Z,8.83
2023-05-07T03:02:52.585Z,8.17
2023-05-07T03:05:19.994Z,8.67
2023-05-07T03:07:48.417Z,7.70
2023-05-07T03:10:16.357Z,8.90
2023-05-07T03:12:43.987Z,10.00
2023-05-07T03:15:16.175Z,7.63
2023-05-07T03:17:43.554Z,8.70
2023-05-07T03:20:12.064Z,8.43
2023-05-07T03:22:40.371Z,10.73
2023-05-07T03:25:08.672Z,7.43
2023-05-07T03:27:35.868Z,7.70
2023-05-07T03:30:03.416Z,8.43
2023-05-07T03:32:30.806Z,8.00
2023-05-07T03:34:58.008Z,7.07
2023-05-07T03:37:25.520Z,7.77
2023-05-07T03:39:52.710Z,8.37
2023-05-07T03:42:21.103Z,7.10
2023-05-07T03:44:50.886Z,7.87
2023-05-07T03:47:19.294Z,7.00
2023-05-07T03:49:49.170Z,7.47
2023-05-07T03:52:16.777Z,7.23
2023-05-07T03:54:43.985Z,7.93
2023-05-07T03:57:12.981Z,6.90
2023-05-07T03:59:40.873Z,7.50
2023-05-07T04:02:09.631Z,7.93
2023-05-07T04:04:37.091Z,8.13
2023-05-07T04:07:05.249Z,7.33
2023-05-07T04:09:38.000Z,7.80
2023-05-07T04:12:05.522Z,6.70
2023-05-07T04:14:33.229Z,9.43
2023-05-07T04:17:01.763Z,7.23
2023-05-07T04:19:29.728Z,8.27
2023-05-07T04:21:57.051Z,8.00
2023-05-07T04:24:24.289Z,6.67
2023-05-07T04:26:52.177Z,7.30
2023-05-07T04:29:21.996Z,7.27
2023-05-07T04:31:49.205Z,7.17
2023-05-07T04:34:16.522Z,7.13
2023-05-07T04:36:44.203Z,6.90
2023-05-07T04:39:14.546Z,6.90
2023-05-07T04:41:44.713Z,7.13
2023-05-07T04:44:13.239Z,7.03
2023-05-07T04:46:40.796Z,7.53
2023-05-07T04:49:08.036Z,5.40
2023-05-07T04:51:35.710Z,5.70
2023-05-07T04:54:03.315Z,6.30
2023-05-07T04:56:31.840Z,6.53
2023-05-07T04:59:00.847Z,6.13
2023-05-07T05:01:29.011Z,7.37
2023-05-07T05:03:56.508Z,6.37
2023-05-07T05:06:23.689Z,7.63
2023-05-07T05:08:52.071Z,6.87
2023-05-07T05:11:19.438Z,6.80
2023-05-07T05:13:48.254Z,6.73
2023-05-07T05:16:19.196Z,6.53
2023-05-07T05:18:46.648Z,5.67
2023-05-07T05:21:16.667Z,5.53
2023-05-07T05:23:46.154Z,5.67
2023-05-07T05:26:15.365Z,5.57
2023-05-07T05:28:42.679Z,5.90
2023-05-07T05:31:09.958Z,5.83
2023-05-07T05:33:37.773Z,6.13
2023-05-07T05:36:06.908Z,5.73
2023-05-07T05:38:34.770Z,5.77
2023-05-07T05:41:02.307Z,6.33
2023-05-07T05:43:31.029Z,5.73
2023-05-07T05:45:59.696Z,5.60
2023-05-07T05:48:26.974Z,5.17
2023-05-07T05:50:54.491Z,4.80
2023-05-07T05:53:21.693Z,5.43
2023-05-07T05:55:49.359Z,6.90
2023-05-07T05:58:17.317Z,5.57
2023-05-07T06:00:53.506Z,4.83
2023-05-07T06:03:23.695Z,5.13
2023-05-07T06:05:51.748Z,6.40
2023-05-07T06:08:21.588Z,4.83
2023-05-07T06:10:49.140Z,5.80
2023-05-07T06:13:16.896Z,4.93
2023-05-07T06:15:44.833Z,5.37
2023-05-07T06:18:14.136Z,5.10
2023-05-07T06:20:42.037Z,7.13
2023-05-07T06:23:17.800Z,4.87
2023-05-07T06:25:52.146Z,5.30
2023-05-07T06:28:22.721Z,4.50
2023-05-07T06:30:50.955Z,4.93
2023-05-07T06:33:20.568Z,5.60
2023-05-07T06:35:47.937Z,4.87
2023-05-07T06:38:15.390Z,5.53
2023-05-07T06:40:50.238Z,4.70
2023-05-07T06:43:17.666Z,4.37
2023-05-07T06:46:03.558Z,3.80
2023-05-07T06:48:30.841Z,4.37
2023-05-07T06:51:03.312Z,5.17
2023-05-07T06:53:31.849Z,3.73
2023-05-07T06:56:01.269Z,4.23
2023-05-07T06:58:28.452Z,4.37
2023-05-07T07:00:55.950Z,3.87
2023-05-07T07:03:24.061Z,4.57
2023-05-07T07:05:55.960Z,4.50
2023-05-07T07:08:23.841Z,3.83
2023-05-07T07:10:52.120Z,3.90
2023-05-07T07:13:20.271Z,4.07
2023-05-07T07:15:47.560Z,4.13
2023-05-07T07:18:14.909Z,3.77
2023-05-07T07:20:42.618Z,4.40
2023-05-07T07:23:09.884Z,4.60
2023-05-07T07:25:37.029Z,4.87
2023-05-07T07:28:04.792Z,5.17
2023-05-07T07:30:32.229Z,5.10
2023-05-07T07:33:04.029Z,5.03
2023-05-07T07:35:34.786Z,3.50
2023-05-07T07:38:02.737Z,4.33
2023-05-07T07:40:31.275Z,3.40
2023-05-07T07:42:58.937Z,4.60
2023-05-07T07:45:26.214Z,3.83
2023-05-07T07:47:53.507Z,3.80
2023-05-07T07:50:35.735Z,3.97
2023-05-07T07:53:08.992Z,3.60
2023-05-07T07:55:40.966Z,4.30
2023-05-07T07:58:08.764Z,4.83
2023-05-07T08:00:36.080Z,5.10
2023-05-07T08:03:04.537Z,4.33
2023-05-07T08:05:36.291Z,3.63
2023-05-07T08:08:05.885Z,3.97
2023-05-07T08:10:35.735Z,4.50
2023-05-07T08:13:09.108Z,3.43
2023-05-07T08:15:38.528Z,3.43
2023-05-07T08:18:06.591Z,3.30
2023-05-07T08:20:38.016Z,4.53
2023-05-07T08:23:05.674Z,4.90
2023-05-07T08:25:34.879Z,4.33
2023-05-07T08:28:02.757Z,4.60
2023-05-07T08:30:30.448Z,5.57
2023-05-07T08:32:58.097Z,4.83
2023-05-07T08:35:26.937Z,5.80
2023-05-07T08:37:55.001Z,4.60
2023-05-07T08:40:27.680Z,4.17
2023-05-07T08:42:57.897Z,4.30
2023-05-07T08:45:27.303Z,4.47
2023-05-07T08:48:00.650Z,4.40
2023-05-07T08:50:32.440Z,5.20
2023-05-07T08:53:01.148Z,4.00
2023-05-07T08:55:30.238Z,4.27
2023-05-07T08:57:58.039Z,4.50
2023-05-07T09:00:26.047Z,4.13
2023-05-07T09:02:55.673Z,3.70
2023-05-07T09:05:23.060Z,4.20
2023-05-07T09:07:53.929Z,3.20
2023-05-07T09:10:22.747Z,3.53
2023-05-07T09:12:51.702Z,4.13
2023-05-07T09:15:19.590Z,3.37
2023-05-07T09:17:47.324Z,3.40
2023-05-07T09:20:14.960Z,4.13
2023-05-07T09:22:42.211Z,3.20
2023-05-07T09:25:13.209Z,4.30
2023-05-07T09:27:43.039Z,4.53
2023-05-07T09:30:13.566Z,3.80
2023-05-07T09:32:51.362Z,4.07
2023-05-07T09:35:25.090Z,3.80
2023-05-07T09:38:00.248Z,4.63
2023-05-07T09:40:33.807Z,3.30
2023-05-07T09:43:14.409Z,3.40
2023-05-07T09:45:52.314Z,4.23
2023-05-07T09:48:27.136Z,4.40
2023-05-07T09:51:02.353Z,2.50
2023-05-07T09:53:32.393Z,2.93
2023-05-07T09:56:05.009Z,2.97
2023-05-07T09:58:34.339Z,3.40
2023-05-07T10:01:03.331Z,2.60
2023-05-07T10:03:33.519Z,3.60
2023-05-07T10:06:06.533Z,3.03
2023-05-07T10:08:36.246Z,2.83
2023-05-07T10:11:06.054Z,3.17
2023-05-07T10:13:38.143Z,3.83
2023-05-07T10:16:08.540Z,3.08
2023-05-07T10:18:42.721Z,3.08
2023-05-07T10:21:19.201Z,3.65
2023-05-07T10:23:51.932Z,4.30
2023-05-07T10:26:23.235Z,4.17
2023-05-07T10:28:57.278Z,2.90
2023-05-07T10:31:49.988Z,4.10
2023-05-07T10:34:22.915Z,2.83
2023-05-07T10:36:52.810Z,2.60
2023-05-07T10:39:22.604Z,2.57
2023-05-07T10:41:50.892Z,3.83
2023-05-07T10:44:30.225Z,2.93
2023-05-07T10:47:13.019Z,3.03
2023-05-07T10:49:42.982Z,4.07
2023-05-07T10:52:27.231Z,2.47
2023-05-07T10:55:22.423Z,2.85
2023-05-07T10:58:31.516Z,3.40
2023-05-07T11:01:54.760Z,3.50
2023-05-07T11:04:45.243Z,4.78
2023-05-07T11:07:29.655Z,4.10
2023-05-07T11:10:04.986Z,4.32
2023-05-07T11:12:50.386Z,3.22
2023-05-07T11:15:45.405Z,3.70
2023-05-07T11:18:19.765Z,3.60
2023-05-07T11:20:52.449Z,4.07
2023-05-07T11:23:36.550Z,4.65
2023-05-07T11:26:13.782Z,4.43
2023-05-07T11:28:43.549Z,4.07
2023-05-07T11:31:12.853Z,4.50
2023-05-07T11:33:41.771Z,4.67
2023-05-07T11:36:13.964Z,5.32
2023-05-07T11:38:46.637Z,5.63
2023-05-07T11:41:13.920Z,4.65
2023-05-07T11:43:58.652Z,5.53
2023-05-07T11:46:26.313Z,6.30
2023-05-07T11:48:53.696Z,4.70
2023-05-07T11:51:23.125Z,5.03
2023-05-07T11:53:51.109Z,5.20
2023-05-07T11:56:19.418Z,4.82
2023-05-07T11:58:48.636Z,5.53
2023-05-07T12:01:17.809Z,4.65
2023-05-07T12:03:47.075Z,8.95
2023-05-07T12:06:17.068Z,5.10
2023-05-07T12:08:47.901Z,5.88
2023-05-07T12:11:24.121Z,7.90
2023-05-07T12:13:51.601Z,5.70
2023-05-07T12:16:19.977Z,4.75
2023-05-07T12:18:47.763Z,5.60
2023-05-07T12:21:15.841Z,5.32
2023-05-07T12:23:43.189Z,6.03
2023-05-07T12:26:10.850Z,4.93
2023-05-07T12:28:42.136Z,5.82
2023-05-07T12:31:09.543Z,5.50
2023-05-07T12:33:37.197Z,4.93
2023-05-07T12:36:08.248Z,4.43
2023-05-07T12:38:39.701Z,3.88
2023-05-07T12:41:08.802Z,4.65
2023-05-07T12:43:36.087Z,3.70
2023-05-07T12:46:08.076Z,4.97
2023-05-07T12:48:38.364Z,5.15
2023-05-07T12:51:06.978Z,4.30
2023-05-07T12:53:34.462Z,3.97
2023-05-07T12:56:01.770Z,3.80
2023-05-07T12:58:34.928Z,3.55
2023-05-07T13:01:07.045Z,3.58
2023-05-07T13:03:37.164Z,3.95
2023-05-07T13:06:08.541Z,5.57
2023-05-07T13:08:38.542Z,5.18
2023-05-07T13:11:06.009Z,3.25
2023-05-07T13:13:34.504Z,3.70
2023-05-07T13:16:03.101Z,3.50
2023-05-07T13:18:32.006Z,3.80
2023-05-07T13:20:59.606Z,4.07
2023-05-07T13:23:27.392Z,3.47
2023-05-07T13:25:55.547Z,3.55
2023-05-07T13:28:23.632Z,3.65
2023-05-07T13:30:52.770Z,4.40
2023-05-07T13:33:20.046Z,3.20
2023-05-07T13:35:47.235Z,3.40
2023-05-07T13:38:16.799Z,3.13
2023-05-07T13:40:44.031Z,3.05
2023-05-07T13:43:11.735Z,2.80
2023-05-07T13:45:39.063Z,2.75
2023-05-07T13:48:06.544Z,2.80
2023-05-07T13:50:33.756Z,3.65
2023-05-07T13:53:00.904Z,4.93
2023-05-07T13:55:30.313Z,4.15
2023-05-07T13:57:59.098Z,3.25
2023-05-07T14:00:27.924Z,4.93
2023-05-07T14:02:56.014Z,5.07
2023-05-07T14:05:27.648Z,3.20
2023-05-07T14:07:56.110Z,3.97
2023-05-07T14:10:23.455Z,3.00
2023-05-07T14:12:50.918Z,2.85
2023-05-07T14:15:18.190Z,2.92
2023-05-07T14:17:45.588Z,3.55
2023-05-07T14:20:14.001Z,3.78
2023-05-07T14:22:41.635Z,6.28
2023-05-07T14:25:10.804Z,4.40
2023-05-07T14:27:38.526Z,3.35
2023-05-07T14:30:06.791Z,3.70
2023-05-07T14:32:34.637Z,4.65
2023-05-07T14:35:01.914Z,4.57
2023-05-07T14:37:29.152Z,3.47
2023-05-07T14:39:56.329Z,3.65
2023-05-07T14:42:23.567Z,4.20
2023-05-07T14:44:50.982Z,3.50
2023-05-07T14:47:19.894Z,4.70
2023-05-07T14:49:47.394Z,4.30
2023-05-07T14:52:14.661Z,4.97
2023-05-07T14:54:41.919Z,4.28
2023-05-07T14:57:10.796Z,4.72
2023-05-07T14:59:39.363Z,5.72
2023-05-07T15:02:08.961Z,3.80
2023-05-07T15:04:39.097Z,3.75
2023-05-07T15:07:06.264Z,4.32
2023-05-07T15:09:33.407Z,4.10
2023-05-07T15:12:01.171Z,5.55
2023-05-07T15:14:28.306Z,3.35
2023-05-07T15:16:55.622Z,3.45
2023-05-07T15:19:23.385Z,3.55
2023-05-07T15:21:50.823Z,3.50
2023-05-07T15:24:17.987Z,4.05
2023-05-07T15:26:45.300Z,4.10
2023-05-07T15:29:12.475Z,3.88
2023-05-07T15:31:39.996Z,5.07
2023-05-07T15:34:07.672Z,3.50
2023-05-07T15:36:34.861Z,6.37
2023-05-07T15:39:04.403Z,3.30
2023-05-07T15:41:31.641Z,4.73
2023-05-07T15:43:58.834Z,3.13
2023-05-07T15:46:26.890Z,4.03
2023-05-07T15:48:54.347Z,3.40
2023-05-07T15:51:22.889Z,3.90
2023-05-07T15:53:51.881Z,3.53
2023-05-07T15:56:19.096Z,3.90
2023-05-07T15:58:46.500Z,4.03
2023-05-07T16:01:13.772Z,3.30
2023-05-07T16:03:41.949Z,3.17
2023-05-07T16:06:11.899Z,3.33
2023-05-07T16:08:40.278Z,3.57
2023-05-07T16:11:07.496Z,3.37
2023-05-07T16:13:35.732Z,4.33
2023-05-07T16:16:03.377Z,3.43
2023-05-07T16:18:30.627Z,3.33
2023-05-07T16:20:59.511Z,2.90
2023-05-07T16:23:26.897Z,3.10
2023-05-07T16:25:54.058Z,3.10
2023-05-07T16:28:21.888Z,3.10
2023-05-07T16:30:50.636Z,3.13
2023-05-07T16:33:17.900Z,2.97
2023-05-07T16:35:47.509Z,4.37
2023-05-07T16:38:14.681Z,3.00
2023-05-07T16:40:41.965Z,4.90
2023-05-07T16:43:09.131Z,4.60
2023-05-07T16:45:36.295Z,3.33
2023-05-07T16:48:04.362Z,10.60
2023-05-07T16:50:31.574Z,10.33
2023-05-07T16:52:58.726Z,8.43
2023-05-07T16:55:25.879Z,4.57
2023-05-07T16:57:53.231Z,4.13
2023-05-07T17:00:20.556Z,3.10
2023-05-07T17:02:47.976Z,2.80
2023-05-07T17:05:15.394Z,3.13
2023-05-07T17:07:42.742Z,4.50
2023-05-07T17:10:10.712Z,4.40
2023-05-07T17:12:38.124Z,4.00
2023-05-07T17:15:05.936Z,2.90
2023-05-07T17:17:33.453Z,6.40
2023-05-07T17:20:01.317Z,3.57
2023-05-07T17:22:28.532Z,3.77
2023-05-07T17:24:55.708Z,3.20
2023-05-07T17:27:23.029Z,3.10
2023-05-07T17:29:50.609Z,3.33
2023-05-07T17:32:17.872Z,3.40
2023-05-07T17:34:45.068Z,4.00
2023-05-07T17:37:12.213Z,2.80
2023-05-07T17:39:39.399Z,3.23
2023-05-07T17:42:07.073Z,3.00
2023-05-07T17:44:35.023Z,3.53
2023-05-07T17:47:03.270Z,2.70
2023-05-07T17:49:30.417Z,2.90
2023-05-07T17:51:57.647Z,2.77
2023-05-07T17:54:27.882Z,3.43
2023-05-07T17:56:55.279Z,2.80
2023-05-07T17:59:22.525Z,6.87
2023-05-07T18:01:50.000Z,4.00
2023-05-07T18:04:17.332Z,4.13
2023-05-07T18:06:44.647Z,3.00
2023-05-07T18:09:11.837Z,3.67
2023-05-07T18:11:39.216Z,3.10
2023-05-07T18:14:06.507Z,3.40
2023-05-07T18:16:34.449Z,4.87
2023-05-07T18:19:02.254Z,3.67
2023-05-07T18:21:29.444Z,5.20
2023-05-07T18:23:56.707Z,5.60
2023-05-07T18:26:23.866Z,4.13
2023-05-07T18:28:51.327Z,4.90
2023-05-07T18:31:18.573Z,8.27
2023-05-07T18:33:45.782Z,9.10
2023-05-07T18:36:12.931Z,5.37
2023-05-07T18:38:42.418Z,4.03
2023-05-07T18:41:09.649Z,5.00
2023-05-07T18:43:36.903Z,7.17
2023-05-07T18:46:04.155Z,4.30
2023-05-07T18:48:31.388Z,4.20
2023-05-07T18:50:58.556Z,5.47
2023-05-07T18:53:25.855Z,4.30
2023-05-07T18:55:53.378Z,5.20
2023-05-07T18:58:20.908Z,4.03
2023-05-07T19:00:49.251Z,6.20
2023-05-07T19:03:17.271Z,3.90
2023-05-07T19:05:45.962Z,4.80
2023-05-07T19:08:13.257Z,3.80
2023-05-07T19:10:40.393Z,4.50
2023-05-07T19:13:07.644Z,4.77
2023-05-07T19:15:34.908Z,5.47
2023-05-07T19:18:03.849Z,5.17
2023-05-07T19:20:31.278Z,4.93
2023-05-07T19:22:58.421Z,4.90
2023-05-07T19:25:25.611Z,4.50
2023-05-07T19:27:52.794Z,5.67
2023-05-07T19:30:20.377Z,5.33
2023-05-07T19:32:47.644Z,4.13
2023-05-07T19:35:15.055Z,3.77
2023-05-07T19:37:42.365Z,3.60
2023-05-07T19:40:10.106Z,3.83
2023-05-07T19:42:37.333Z,5.50
2023-05-07T19:45:05.506Z,4.10
2023-05-07T19:47:32.931Z,4.23
2023-05-07T19:50:00.238Z,4.20
2023-05-07T19:52:27.492Z,4.33
2023-05-07T19:54:55.657Z,3.53
2023-05-07T19:57:22.889Z,5.03
2023-05-07T19:59:50.035Z,5.70
2023-05-07T20:02:17.294Z,5.20
2023-05-07T20:04:44.502Z,4.97
2023-05-07T20:07:11.678Z,5.07
2023-05-07T20:09:39.319Z,9.67
2023-05-07T20:12:06.931Z,9.70
2023-05-07T20:14:34.437Z,9.73
2023-05-07T20:17:01.640Z,6.97
2023-05-07T20:19:28.922Z,8.60
2023-05-07T20:21:56.772Z,8.70
2023-05-07T20:24:24.382Z,7.37
2023-05-07T20:26:51.562Z,6.93
2023-05-07T20:29:18.748Z,7.13
2023-05-07T20:31:46.070Z,6.07
2023-05-07T20:34:13.265Z,6.83
2023-05-07T20:36:40.420Z,6.63
2023-05-07T20:39:07.922Z,7.13
2023-05-07T20:41:35.064Z,10.20
2023-05-07T20:44:02.593Z,6.93
2023-05-07T20:46:30.192Z,7.27
2023-05-07T20:48:57.638Z,6.97
2023-05-07T20:51:24.824Z,7.30
2023-05-07T20:53:51.986Z,8.17
2023-05-07T20:56:19.328Z,7.10
2023-05-07T20:58:46.475Z,7.70
2023-05-07T21:01:13.864Z,7.50
2023-05-07T21:03:41.115Z,10.67
2023-05-07T21:06:08.348Z,8.33
2023-05-07T21:08:35.593Z,7.77
2023-05-07T21:11:03.259Z,7.77
2023-05-07T21:13:30.681Z,8.30
2023-05-07T21:15:57.873Z,9.10
2023-05-07T21:18:26.599Z,9.47
2023-05-07T21:20:53.874Z,8.57
2023-05-07T21:23:21.019Z,8.50
2023-05-07T21:25:49.622Z,8.43
2023-05-07T21:28:16.758Z,9.03
2023-05-07T21:30:43.956Z,8.57
2023-05-07T21:33:11.142Z,8.33
2023-05-07T21:35:38.346Z,9.07
2023-05-07T21:38:05.585Z,9.00
2023-05-07T21:40:32.794Z,9.33
2023-05-07T21:43:00.665Z,9.23
2023-05-07T21:45:28.174Z,9.20
2023-05-07T21:47:55.547Z,9.53
2023-05-07T21:50:23.122Z,9.90
2023-05-07T21:52:50.570Z,9.90
2023-05-07T21:55:18.355Z,12.17
2023-05-07T21:57:57.476Z,9.70
2023-05-07T22:00:32.635Z,10.30
2023-05-07T22:03:00.486Z,9.70
2023-05-07T22:05:28.062Z,10.23
2023-05-07T22:07:55.473Z,9.77
2023-05-07T22:10:22.953Z,9.83
2023-05-07T22:12:50.718Z,9.93
2023-05-07T22:15:18.366Z,10.90
2023-05-07T22:17:45.588Z,9.97
2023-05-07T22:20:12.994Z,10.37
2023-05-07T22:22:54.717Z,10.80
2023-05-07T22:25:23.239Z,11.13
2023-05-07T22:27:50.966Z,11.17
2023-05-07T22:30:18.431Z,10.87
2023-05-07T22:32:45.760Z,11.63
2023-05-07T22:35:12.974Z,11.80
2023-05-07T22:37:40.160Z,9.83
2023-05-07T22:40:07.927Z,10.03
2023-05-07T22:42:35.188Z,11.10
2023-05-07T22:45:02.963Z,11.13
2023-05-07T22:47:33.057Z,11.23
2023-05-07T22:50:00.911Z,12.03
2023-05-07T22:52:28.085Z,12.67
2023-05-07T22:54:55.268Z,11.97
2023-05-07T22:57:22.440Z,10.57
2023-05-07T22:59:54.341Z,11.67
2023-05-07T23:02:21.841Z,11.13
2023-05-07T23:04:49.225Z,11.77
2023-05-07T23:07:16.590Z,11.10
2023-05-07T23:09:44.010Z,10.87
2023-05-07T23:12:11.262Z,10.87
2023-05-07T23:14:38.502Z,11.27
2023-05-07T23:17:05.705Z,11.43
2023-05-07T23:19:33.202Z,11.80
2023-05-07T23:22:00.393Z,11.07
2023-05-07T23:24:27.646Z,11.90
2023-05-07T23:26:54.858Z,10.60
2023-05-07T23:29:22.016Z,11.70
2023-05-07T23:31:49.163Z,11.37
2023-05-07T23:34:23.491Z,11.63
2023-05-07T23:36:51.390Z,11.70
2023-05-07T23:39:19.535Z,11.63
2023-05-07T23:41:46.772Z,11.20
2023-05-07T23:44:16.280Z,10.60
2023-05-07T23:46:44.507Z,11.50
2023-05-07T23:49:12.017Z,11.43
2023-05-07T23:51:39.200Z,10.60
2023-05-07T23:54:07.155Z,10.97
2023-05-07T23:56:34.408Z,12.27
2023-05-07T23:59:01.554Z,9.83
